createdAt,value
2018-06-19T05:26:08.330Z,19.10
2018-06-19T05:55:52.336Z,20.70
2018-06-19T06:02:07.108Z,21.20
2018-06-19T06:04:38.412Z,21.40
2018-06-19T06:07:11.599Z,21.60
2018-06-19T06:09:42.675Z,21.70
2018-06-19T06:12:13.457Z,21.90
2018-06-19T06:14:44.053Z,22.10
2018-06-19T06:17:14.239Z,22.20
2018-06-19T06:19:46.440Z,22.30
2018-06-19T06:22:16.792Z,22.30
2018-06-19T06:24:47.658Z,22.50
2018-06-19T06:27:18.152Z,22.80
2018-06-19T06:29:50.181Z,22.70
2018-06-19T06:32:21.149Z,22.90
2018-06-19T06:34:51.066Z,23.00
2018-06-19T06:37:20.745Z,23.20
2018-06-19T06:39:51.728Z,23.30
2018-06-19T06:42:24.123Z,23.30
2018-06-19T06:44:54.253Z,23.40
2018-06-19T06:47:24.758Z,23.50
2018-06-19T06:49:55.882Z,23.20
2018-06-19T06:52:26.692Z,23.60
2018-06-19T06:54:57.531Z,24.10
2018-06-19T06:57:27.394Z,24.40
2018-06-19T06:59:57.867Z,24.40
2018-06-19T07:02:29.114Z,24.80
2018-06-19T07:04:59.523Z,25.00
2018-06-19T07:07:30.544Z,24.70
2018-06-19T07:10:01.576Z,24.70
2018-06-19T07:12:35.232Z,24.90
2018-06-19T07:15:06.011Z,25.40
2018-06-19T07:17:37.024Z,25.20
2018-06-19T07:20:08.170Z,25.30
2018-06-19T07:22:41.719Z,25.50
2018-06-19T07:25:12.679Z,25.70
2018-06-19T07:27:42.340Z,25.70
2018-06-19T07:30:15.086Z,25.90
2018-06-19T07:32:46.057Z,26.30
2018-06-19T07:35:17.785Z,26.80
2018-06-19T07:37:48.358Z,27.00
2018-06-19T07:40:19.151Z,26.90
2018-06-19T07:42:49.974Z,27.20
2018-06-19T07:45:21.869Z,27.40
2018-06-19T07:47:52.985Z,27.40
2018-06-19T07:50:23.461Z,27.10
2018-06-19T07:52:54.739Z,27.10
2018-06-19T07:55:25.418Z,27.10
2018-06-19T07:57:56.377Z,27.30
2018-06-19T08:00:28.107Z,27.60
2018-06-19T08:03:02.424Z,28.00
2018-06-19T08:05:32.755Z,27.30
2018-06-19T08:08:03.331Z,27.00
2018-06-19T08:10:35.381Z,26.70
2018-06-19T08:13:05.256Z,27.30
2018-06-19T08:15:36.401Z,27.40
2018-06-19T08:18:05.947Z,26.90
2018-06-19T08:20:36.680Z,26.60
2018-06-19T08:23:07.228Z,26.50
2018-06-19T08:25:37.878Z,26.60
2018-06-19T08:28:11.629Z,26.70
2018-06-19T08:30:42.909Z,27.30
2018-06-19T08:33:13.868Z,27.10
2018-06-19T08:35:46.207Z,27.20
2018-06-19T08:38:16.528Z,28.00
2018-06-19T08:40:47.511Z,28.10
2018-06-19T08:43:18.189Z,28.20
2018-06-19T08:45:49.388Z,28.30
2018-06-19T08:48:19.713Z,29.20
2018-06-19T08:50:51.683Z,29.80
2018-06-19T08:53:23.240Z,31.20
2018-06-19T08:55:56.061Z,31.00
2018-06-19T08:58:34.093Z,29.50
2018-06-19T09:01:07.896Z,29.80
2018-06-19T09:03:40.604Z,29.60
2018-06-19T09:06:16.199Z,30.20
2018-06-19T09:08:47.195Z,30.50
2018-06-19T09:11:17.569Z,30.80
2018-06-19T09:13:48.259Z,32.00
2018-06-19T09:16:18.900Z,31.40
2018-06-19T09:18:50.155Z,30.90
2018-06-19T09:21:19.851Z,31.20
2018-06-19T09:23:52.874Z,31.30
2018-06-19T09:26:23.639Z,29.80
2018-06-19T09:28:54.315Z,28.90
2018-06-19T09:31:26.221Z,28.90
2018-06-19T09:33:56.763Z,28.70
2018-06-19T09:36:28.147Z,29.50
2018-06-19T09:38:59.152Z,29.60
2018-06-19T09:41:31.271Z,31.40
2018-06-19T09:44:01.408Z,32.40
2018-06-19T09:46:33.936Z,31.40
2018-06-19T09:49:08.810Z,30.50
2018-06-19T09:51:42.736Z,29.40
2018-06-19T09:54:16.037Z,28.00
2018-06-19T09:56:46.702Z,28.00
2018-06-19T09:59:20.228Z,29.80
2018-06-19T10:01:51.027Z,31.80
2018-06-19T10:04:21.898Z,32.70
2018-06-19T10:06:52.979Z,34.00
2018-06-19T10:09:27.681Z,34.40
2018-06-19T10:12:02.358Z,34.70
2018-06-19T10:14:33.356Z,32.70
2018-06-19T10:17:05.379Z,31.30
2018-06-19T10:19:36.361Z,30.20
2018-06-19T10:22:08.654Z,29.20
2018-06-19T10:24:39.642Z,28.40
2018-06-19T10:27:10.703Z,28.80
2018-06-19T10:29:44.305Z,30.80
2018-06-19T10:32:15.698Z,32.10
2018-06-19T10:34:45.939Z,33.20
2018-06-19T10:37:16.764Z,33.40
2018-06-19T10:39:53.964Z,33.80
2018-06-19T10:42:24.868Z,34.30
2018-06-19T10:44:56.343Z,33.20
2018-06-19T10:47:27.580Z,31.10
2018-06-19T10:49:57.985Z,30.80
2018-06-19T10:52:29.446Z,32.00
2018-06-19T10:55:00.428Z,31.00
2018-06-19T10:57:31.404Z,30.00
2018-06-19T11:00:03.580Z,29.10
2018-06-19T11:02:36.182Z,29.10
2018-06-19T11:05:09.047Z,30.40
2018-06-19T11:07:41.065Z,31.90
2018-06-19T11:10:12.706Z,32.50
2018-06-19T11:12:43.592Z,32.30
2018-06-19T11:15:15.580Z,30.80
2018-06-19T11:17:49.701Z,29.80
2018-06-19T11:20:26.746Z,30.50
2018-06-19T11:23:13.205Z,31.40
2018-06-19T11:25:49.797Z,32.30
2018-06-19T11:28:32.818Z,32.60
2018-06-19T11:31:05.279Z,32.90
2018-06-19T11:33:45.273Z,32.70
2018-06-19T11:39:12.835Z,32.10
2018-06-19T11:44:27.797Z,30.70
2018-06-19T11:52:42.665Z,31.70
2018-06-19T12:00:41.235Z,31.30
2018-06-19T12:03:19.434Z,31.70
2018-06-19T12:05:59.495Z,32.10
2018-06-19T12:08:58.607Z,32.20
2018-06-19T12:11:38.452Z,32.40
2018-06-19T12:14:26.753Z,32.60
2018-06-19T12:17:23.012Z,32.60
2018-06-19T12:19:58.314Z,32.10
2018-06-19T12:22:46.492Z,31.90
2018-06-19T12:25:26.767Z,31.80
2018-06-19T12:28:03.571Z,31.70
2018-06-19T12:30:59.316Z,30.80
2018-06-19T12:33:42.312Z,31.60
2018-06-19T12:36:19.430Z,31.80
2018-06-19T12:38:50.567Z,32.00
2018-06-19T12:50:06.453Z,31.20
2018-06-19T12:52:48.426Z,31.50
2018-06-19T12:55:35.446Z,31.40
2018-06-19T12:58:25.681Z,31.20
2018-06-19T13:01:20.437Z,31.40
2018-06-19T13:04:11.371Z,31.70
2018-06-19T13:10:00.984Z,31.90
2018-06-19T13:15:22.933Z,31.30
2018-06-19T13:18:04.448Z,31.40
2018-06-19T13:20:46.836Z,31.40
2018-06-19T13:23:26.453Z,31.20
2018-06-19T13:26:03.852Z,31.10
2018-06-19T13:33:06.256Z,31.10
2018-06-19T13:35:48.064Z,31.00
2018-06-19T13:44:19.904Z,31.10
2018-06-19T13:47:03.915Z,31.10
2018-06-19T13:49:42.760Z,31.10
2018-06-19T13:52:22.511Z,31.60
2018-06-19T13:55:04.231Z,31.40
2018-06-19T13:57:48.956Z,30.70
2018-06-19T14:00:25.008Z,29.90
2018-06-19T14:02:58.444Z,29.70
2018-06-19T14:05:29.320Z,30.00
2018-06-19T14:08:11.735Z,30.90
2018-06-19T14:10:55.559Z,31.10
2018-06-19T14:16:27.113Z,31.50
2018-06-19T14:19:13.822Z,30.90
2018-06-19T14:21:44.076Z,30.90
2018-06-19T14:24:18.953Z,30.70
2018-06-19T14:30:23.078Z,30.80
2018-06-19T14:32:59.582Z,30.50
2018-06-19T14:35:42.372Z,30.20
2018-06-19T14:40:53.163Z,30.10
2018-06-19T14:43:53.580Z,29.90
2018-06-19T14:46:29.076Z,30.40
2018-06-19T14:49:04.083Z,30.30
2018-06-19T14:51:38.782Z,30.20
2018-06-19T14:54:17.672Z,29.80
2018-06-19T14:56:57.116Z,29.70
2018-06-19T14:59:46.408Z,29.40
2018-06-19T15:02:20.364Z,29.60
2018-06-19T15:05:16.907Z,29.50
2018-06-19T15:11:32.931Z,29.30
2018-06-19T15:16:59.552Z,29.20
2018-06-19T15:20:03.503Z,29.30
2018-06-19T15:37:03.667Z,28.60
2018-06-19T16:01:25.786Z,26.80
2018-06-19T16:16:53.999Z,27.70
2018-06-19T16:28:48.249Z,26.80
2018-06-19T16:38:33.775Z,26.60
2018-06-19T16:44:38.824Z,25.90
2018-06-19T16:47:30.261Z,25.70
2018-06-19T16:50:04.976Z,25.40
2018-06-19T16:52:36.311Z,25.00
2018-06-19T16:55:13.409Z,24.90
2018-06-19T16:57:46.378Z,24.80
2018-06-19T17:00:19.203Z,24.80
2018-06-19T17:02:52.708Z,24.60
2018-06-19T17:05:26.907Z,24.50
2018-06-19T17:07:59.019Z,24.40
2018-06-19T17:10:32.852Z,24.40
2018-06-19T17:13:07.477Z,24.50
2018-06-19T17:15:42.363Z,24.40
2018-06-19T17:18:19.196Z,24.40
2018-06-19T17:20:52.899Z,24.30
2018-06-19T17:23:34.094Z,24.20
2018-06-19T17:29:08.107Z,24.10
2018-06-19T17:32:03.926Z,24.00
2018-06-19T18:08:04.501Z,22.90
2018-06-19T18:11:01.548Z,22.90
2018-06-19T18:20:34.641Z,22.50
2018-06-19T18:26:38.691Z,22.50
2018-06-19T18:44:14.377Z,21.80
2018-06-19T18:53:30.940Z,21.70
2018-06-19T18:56:20.682Z,21.80
2018-06-19T18:58:58.055Z,21.90
2018-06-19T19:01:50.953Z,21.80
2018-06-19T19:05:08.431Z,21.70
2018-06-19T19:07:42.337Z,21.70
2018-06-19T19:13:41.983Z,21.70
2018-06-19T19:16:18.058Z,21.60
2018-06-19T19:18:53.446Z,21.50
2018-06-19T19:25:12.860Z,21.50
2018-06-19T19:28:18.005Z,21.20
2018-06-19T19:30:52.352Z,21.10
2018-06-19T19:33:28.447Z,21.00
2018-06-19T19:36:13.225Z,21.10
2018-06-19T19:41:36.712Z,20.90
2018-06-19T19:49:12.887Z,20.80
2018-06-19T19:52:03.235Z,20.80
2018-06-19T19:54:39.872Z,20.60
2018-06-19T20:00:20.647Z,20.50
2018-06-19T20:11:13.106Z,20.00
2018-06-19T20:13:51.731Z,19.70
2018-06-19T20:16:34.653Z,19.50
2018-06-19T20:19:11.281Z,19.40
2018-06-19T20:21:47.021Z,19.20
2018-06-19T20:24:26.392Z,19.10
2018-06-19T20:34:15.802Z,18.80
2018-06-19T20:36:46.781Z,18.80
2018-06-19T20:39:29.955Z,18.90
2018-06-19T20:42:13.827Z,18.90
2018-06-19T20:44:53.388Z,19.10
2018-06-19T20:47:24.469Z,19.20
2018-06-19T20:49:59.555Z,19.30
2018-06-19T20:52:33.037Z,19.30
2018-06-19T20:55:05.922Z,19.30
2018-06-19T20:57:37.867Z,19.30
2018-06-19T21:00:16.506Z,19.40
2018-06-19T21:05:45.805Z,19.60
2018-06-19T21:08:18.449Z,19.60
2018-06-19T21:10:53.145Z,19.50
2018-06-19T21:13:32.496Z,19.50
2018-06-19T21:16:14.174Z,19.50
2018-06-19T21:18:55.184Z,19.40
2018-06-19T21:24:21.739Z,19.40
2018-06-19T21:29:56.679Z,19.40
2018-06-19T21:32:38.873Z,19.40
2018-06-19T21:38:38.747Z,19.40
